createdAt,value
2023-06-06T00:00:43.205Z,101594.22
2023-06-06T00:05:46.157Z,101596.66
2023-06-06T00:10:48.547Z,101595.03
2023-06-06T00:15:50.992Z,101593.06
2023-06-06T00:20:55.574Z,101591.88
2023-06-06T00:25:57.973Z,101593.28
2023-06-06T00:31:01.597Z,101591.88
2023-06-06T00:36:05.345Z,101595.00
2023-06-06T00:41:08.010Z,101593.63
2023-06-06T00:46:13.551Z,101600.94
2023-06-06T00:51:16.494Z,101596.19
2023-06-06T00:56:21.263Z,101609.31
2023-06-06T01:01:25.060Z,101613.25
2023-06-06T01:06:35.435Z,101612.91
2023-06-06T01:12:00.127Z,101623.72
2023-06-06T01:17:05.237Z,101628.28
2023-06-06T01:22:07.560Z,101623.59
2023-06-06T01:27:11.759Z,101609.41
2023-06-06T01:32:42.965Z,101632.34
2023-06-06T01:37:53.969Z,101633.16
2023-06-06T01:42:58.480Z,101625.00
2023-06-06T01:48:02.533Z,101635.38
2023-06-06T01:53:06.950Z,101628.38
2023-06-06T01:58:11.319Z,101632.56
2023-06-06T02:03:13.861Z,101648.06
2023-06-06T02:08:17.673Z,101647.50
2023-06-06T02:13:20.024Z,101650.31
2023-06-06T02:18:23.133Z,101661.13
2023-06-06T02:23:47.056Z,101655.66
2023-06-06T02:28:49.401Z,101663.22
2023-06-06T02:33:51.925Z,101661.63
2023-06-06T02:38:55.538Z,101652.22
2023-06-06T02:43:58.482Z,101662.28
2023-06-06T02:49:01.601Z,101656.88
2023-06-06T02:54:04.632Z,101662.03
2023-06-06T02:59:11.145Z,101660.34
2023-06-06T03:04:14.857Z,101640.28
2023-06-06T03:09:21.088Z,101667.06
2023-06-06T03:14:23.832Z,101670.81
2023-06-06T03:19:26.903Z,101652.91
2023-06-06T03:24:31.152Z,101670.78
2023-06-06T03:29:33.631Z,101654.63
2023-06-06T03:34:37.402Z,101677.31
2023-06-06T03:39:41.056Z,101668.13
2023-06-06T03:44:46.052Z,101663.91
2023-06-06T03:49:49.445Z,101676.31
2023-06-06T03:54:53.054Z,101684.00
2023-06-06T03:59:55.596Z,101672.63
2023-06-06T04:05:02.620Z,101687.94
2023-06-06T04:10:07.623Z,101665.00
2023-06-06T04:15:13.289Z,101672.41
2023-06-06T04:20:16.701Z,101682.78
2023-06-06T04:25:20.828Z,101683.94
2023-06-06T04:30:26.935Z,101686.69
2023-06-06T04:35:30.393Z,101682.81
2023-06-06T04:40:47.748Z,101689.44
2023-06-06T04:45:59.467Z,101693.41
2023-06-06T04:51:02.602Z,101703.09
2023-06-06T04:56:07.560Z,101699.69
2023-06-06T05:01:12.478Z,101704.06
2023-06-06T05:06:15.781Z,101703.03
2023-06-06T05:11:20.637Z,101711.28
2023-06-06T05:16:23.928Z,101708.84
2023-06-06T05:21:27.658Z,101712.69
2023-06-06T05:26:32.288Z,101707.94
2023-06-06T05:31:38.347Z,101681.06
2023-06-06T05:36:45.074Z,101691.88
2023-06-06T05:41:52.187Z,101689.31
2023-06-06T05:46:57.913Z,101686.50
2023-06-06T05:52:02.618Z,101693.03
2023-06-06T05:57:19.240Z,101708.88
2023-06-06T06:02:24.277Z,101683.63
2023-06-06T06:07:29.618Z,101705.69
2023-06-06T06:12:32.102Z,101689.25
2023-06-06T06:17:35.867Z,101698.03
2023-06-06T06:22:41.666Z,101692.44
2023-06-06T06:27:48.804Z,101701.38
2023-06-06T06:32:52.264Z,101682.63
2023-06-06T06:37:55.724Z,101704.47
2023-06-06T06:42:58.129Z,101678.03
2023-06-06T06:48:10.187Z,101675.63
2023-06-06T06:53:15.600Z,101689.88
2023-06-06T06:58:27.229Z,101685.94
2023-06-06T07:03:31.337Z,101664.34
2023-06-06T07:08:35.161Z,101659.75
2023-06-06T07:13:37.572Z,101659.38
2023-06-06T07:18:42.129Z,101674.03
2023-06-06T07:23:44.517Z,101679.91
2023-06-06T07:28:48.418Z,101680.44
2023-06-06T07:33:51.870Z,101654.38
2023-06-06T07:38:55.531Z,101646.69
2023-06-06T07:44:03.634Z,101669.59
2023-06-06T07:49:07.742Z,101651.63
2023-06-06T07:54:12.889Z,101628.19
2023-06-06T07:59:19.260Z,101644.16
2023-06-06T08:04:34.725Z,101650.53
2023-06-06T08:09:38.703Z,101651.97
2023-06-06T08:14:42.854Z,101660.66
2023-06-06T08:19:45.274Z,101642.94
2023-06-06T08:25:13.956Z,101650.63
2023-06-06T08:30:21.879Z,101654.28
2023-06-06T08:35:26.648Z,101648.44
2023-06-06T08:40:33.629Z,101653.94
2023-06-06T08:45:41.324Z,101641.25
2023-06-06T08:50:45.026Z,101615.69
2023-06-06T08:55:48.716Z,101656.97
2023-06-06T09:00:51.886Z,101660.59
2023-06-06T09:05:57.752Z,101650.59
2023-06-06T09:11:04.835Z,101646.34
2023-06-06T09:16:09.736Z,101644.88
2023-06-06T09:21:14.498Z,101654.94
2023-06-06T09:26:21.978Z,101643.00
2023-06-06T09:31:34.300Z,101637.91
2023-06-06T09:36:39.648Z,101634.50
2023-06-06T09:41:43.863Z,101620.06
2023-06-06T09:46:46.550Z,101631.97
2023-06-06T09:51:49.861Z,101613.31
2023-06-06T09:56:58.506Z,101630.91
2023-06-06T10:02:09.476Z,101617.47
2023-06-06T10:07:14.455Z,101620.34
2023-06-06T10:12:18.372Z,101574.44
2023-06-06T10:17:21.473Z,101612.59
2023-06-06T10:22:25.760Z,101608.94
2023-06-06T10:27:40.746Z,101605.34
2023-06-06T10:33:04.176Z,101626.41
2023-06-06T10:38:11.764Z,101629.06
2023-06-06T10:43:33.281Z,101587.34
2023-06-06T10:48:39.590Z,101599.28
2023-06-06T10:53:43.264Z,101582.50
2023-06-06T10:58:48.071Z,101623.16
2023-06-06T11:03:54.001Z,101597.16
2023-06-06T11:09:02.592Z,101601.09
2023-06-06T11:14:09.586Z,101633.13
2023-06-06T11:19:17.632Z,101634.13
2023-06-06T11:24:21.285Z,101619.44
2023-06-06T11:29:25.024Z,101624.66
2023-06-06T11:34:29.704Z,101618.66
2023-06-06T11:39:32.682Z,101629.41
2023-06-06T11:45:28.397Z,101619.44
2023-06-06T11:50:31.711Z,101558.28
2023-06-06T12:01:17.739Z,101606.38
2023-06-06T12:06:25.806Z,101618.81
2023-06-06T12:11:31.917Z,101613.09
2023-06-06T12:16:35.930Z,101617.47
2023-06-06T12:21:49.681Z,101613.91
2023-06-06T12:27:04.808Z,101611.28
2023-06-06T12:32:16.819Z,101606.59
2023-06-06T12:37:20.145Z,101601.91
2023-06-06T12:42:26.731Z,101602.41
2023-06-06T12:47:30.115Z,101604.41
2023-06-06T12:52:32.838Z,101607.84
2023-06-06T12:57:35.670Z,101609.63
2023-06-06T13:02:43.853Z,101618.66
2023-06-06T13:07:56.782Z,101614.22
2023-06-06T13:12:59.363Z,101600.75
2023-06-06T13:18:02.728Z,101606.47
2023-06-06T13:23:07.130Z,101601.84
2023-06-06T13:28:10.448Z,101585.00
2023-06-06T13:33:13.662Z,101594.16
2023-06-06T13:38:25.293Z,101576.44
2023-06-06T13:43:28.228Z,101585.13
2023-06-06T13:48:32.471Z,101587.34
2023-06-06T13:53:35.531Z,101567.72
2023-06-06T13:58:50.577Z,101581.06
2023-06-06T14:03:55.274Z,101584.13
2023-06-06T14:08:58.061Z,101589.09
2023-06-06T14:14:02.262Z,101580.78
2023-06-06T14:19:06.081Z,101579.97
2023-06-06T14:24:10.271Z,101562.13
2023-06-06T14:29:13.193Z,101580.88
2023-06-06T14:34:16.341Z,101584.16
2023-06-06T14:39:19.236Z,101585.91
2023-06-06T14:44:24.527Z,101564.22
2023-06-06T14:49:27.691Z,101593.13
2023-06-06T14:54:31.847Z,101601.03
2023-06-06T14:59:34.624Z,101601.25
2023-06-06T15:04:37.630Z,101593.72
2023-06-06T15:09:40.147Z,101604.38
2023-06-06T15:14:43.578Z,101603.56
2023-06-06T15:19:46.348Z,101610.59
2023-06-06T15:24:49.842Z,101607.38
2023-06-06T15:29:56.753Z,101605.25
2023-06-06T15:35:00.163Z,101605.25
2023-06-06T15:40:04.171Z,101613.66
2023-06-06T15:45:07.596Z,101618.38
2023-06-06T15:50:12.347Z,101604.47
2023-06-06T15:55:17.944Z,101618.84
2023-06-06T16:00:23.945Z,101620.09
2023-06-06T16:05:27.673Z,101617.94
2023-06-06T16:10:31.012Z,101619.91
2023-06-06T16:15:34.080Z,101619.75
2023-06-06T16:20:36.991Z,101627.41
2023-06-06T16:25:39.444Z,101632.84
2023-06-06T16:30:41.873Z,101637.25
2023-06-06T16:35:44.420Z,101652.13
2023-06-06T16:40:47.006Z,101647.56
2023-06-06T16:45:49.421Z,101661.09
2023-06-06T16:50:52.273Z,101649.78
2023-06-06T16:55:56.075Z,101662.75
2023-06-06T17:00:59.012Z,101677.09
2023-06-06T17:06:01.931Z,101696.25
2023-06-06T17:11:04.383Z,101687.59
2023-06-06T17:16:08.300Z,101694.06
2023-06-06T17:21:11.417Z,101681.59
2023-06-06T17:26:14.352Z,101686.69
2023-06-06T17:31:17.105Z,101693.16
2023-06-06T17:36:19.790Z,101701.19
2023-06-06T17:41:22.824Z,101704.63
2023-06-06T17:46:26.475Z,101715.09
2023-06-06T17:51:29.038Z,101714.75
2023-06-06T17:56:33.994Z,101720.94
2023-06-06T18:01:37.117Z,101715.19
2023-06-06T18:06:40.069Z,101720.03
2023-06-06T18:11:44.447Z,101727.22
2023-06-06T18:16:47.256Z,101730.44
2023-06-06T18:21:50.090Z,101733.03
2023-06-06T18:26:52.554Z,101708.63
2023-06-06T18:31:56.722Z,101733.78
2023-06-06T18:36:59.227Z,101738.53
2023-06-06T18:42:05.070Z,101734.16
2023-06-06T18:47:07.854Z,101740.91
2023-06-06T18:52:10.454Z,101744.94
2023-06-06T18:57:15.691Z,101752.94
2023-06-06T19:02:18.552Z,101751.56
2023-06-06T19:07:21.484Z,101760.41
2023-06-06T19:12:34.619Z,101741.72
2023-06-06T19:17:42.512Z,101752.47
2023-06-06T19:22:46.242Z,101735.63
2023-06-06T19:27:48.902Z,101739.38
2023-06-06T19:32:51.506Z,101760.16
2023-06-06T19:37:54.434Z,101759.50
2023-06-06T19:42:58.091Z,101750.97
2023-06-06T19:48:00.584Z,101767.69
2023-06-06T19:53:04.169Z,101760.84
2023-06-06T19:58:06.967Z,101762.91
2023-06-06T20:03:09.457Z,101746.19
2023-06-06T20:08:12.542Z,101771.53
2023-06-06T20:13:15.405Z,101761.38
2023-06-06T20:18:17.966Z,101761.03
2023-06-06T20:23:20.970Z,101773.03
2023-06-06T20:28:23.894Z,101780.94
2023-06-06T20:33:26.665Z,101783.31
2023-06-06T20:38:29.769Z,101778.44
2023-06-06T20:43:35.932Z,101775.34
2023-06-06T20:48:38.983Z,101777.47
2023-06-06T20:53:41.867Z,101765.91
2023-06-06T20:58:44.851Z,101777.84
2023-06-06T21:03:47.762Z,101775.00
2023-06-06T21:08:50.673Z,101781.16
2023-06-06T21:13:53.648Z,101785.91
2023-06-06T21:18:56.061Z,101772.56
2023-06-06T21:23:58.586Z,101770.03
2023-06-06T21:29:02.629Z,101759.78
2023-06-06T21:34:06.085Z,101762.19
2023-06-06T21:39:09.387Z,101759.59
2023-06-06T21:44:12.194Z,101754.38
2023-06-06T21:49:14.912Z,101760.13
2023-06-06T21:54:17.321Z,101755.13
2023-06-06T21:59:21.324Z,101769.03
2023-06-06T22:04:23.860Z,101764.13
2023-06-06T22:09:26.609Z,101757.78
2023-06-06T22:14:29.580Z,101778.44
2023-06-06T22:19:31.956Z,101769.66
2023-06-06T22:24:34.801Z,101756.97
2023-06-06T22:29:37.709Z,101761.53
2023-06-06T22:34:40.068Z,101774.81
2023-06-06T22:39:44.448Z,101784.84
2023-06-06T22:44:47.525Z,101777.28
2023-06-06T22:49:51.600Z,101789.88
2023-06-06T22:54:54.019Z,101788.13
2023-06-06T22:59:57.021Z,101798.28
2023-06-06T23:04:59.458Z,101760.59
2023-06-06T23:10:02.786Z,101791.66
2023-06-06T23:15:07.132Z,101787.47
2023-06-06T23:20:14.382Z,101795.28
2023-06-06T23:25:17.156Z,101785.84
2023-06-06T23:30:20.212Z,101795.41
2023-06-06T23:35:23.381Z,101804.84
2023-06-06T23:40:25.848Z,101777.44
2023-06-06T23:45:29.310Z,101791.91
2023-06-06T23:50:33.256Z,101794.72
2023-06-06T23:55:37.480Z,101801.13
